sensor_id;sensor_type;location;lat;lon;timestamp;temperature;humidity
81311;DHT22;70779;52.506;5.492;2023-07-31T00:00:36;18.80;70.90
81311;DHT22;70779;52.506;5.492;2023-07-31T00:03:02;18.70;71.00
81311;DHT22;70779;52.506;5.492;2023-07-31T00:05:28;18.70;71.00
81311;DHT22;70779;52.506;5.492;2023-07-31T00:07:54;18.70;71.00
81311;DHT22;70779;52.506;5.492;2023-07-31T00:10:20;18.70;71.20
81311;DHT22;70779;52.506;5.492;2023-07-31T00:12:47;18.70;71.20
81311;DHT22;70779;52.506;5.492;2023-07-31T00:15:14;18.70;71.30
81311;DHT22;70779;52.506;5.492;2023-07-31T00:17:40;18.70;71.30
81311;DHT22;70779;52.506;5.492;2023-07-31T00:20:07;18.70;71.30
81311;DHT22;70779;52.506;5.492;2023-07-31T00:22:33;18.70;71.30
81311;DHT22;70779;52.506;5.492;2023-07-31T00:24:59;18.80;71.20
81311;DHT22;70779;52.506;5.492;2023-07-31T00:27:25;18.80;71.20
81311;DHT22;70779;52.506;5.492;2023-07-31T00:29:51;18.90;71.20
81311;DHT22;70779;52.506;5.492;2023-07-31T00:32:18;18.90;71.20
81311;DHT22;70779;52.506;5.492;2023-07-31T00:34:45;18.90;71.10
81311;DHT22;70779;52.506;5.492;2023-07-31T00:37:11;19.00;71.10
81311;DHT22;70779;52.506;5.492;2023-07-31T00:39:37;19.00;71.10
81311;DHT22;70779;52.506;5.492;2023-07-31T00:42:03;19.00;71.00
81311;DHT22;70779;52.506;5.492;2023-07-31T00:44:29;19.00;71.00
81311;DHT22;70779;52.506;5.492;2023-07-31T00:46:56;19.10;71.00
81311;DHT22;70779;52.506;5.492;2023-07-31T00:49:23;19.10;71.20
81311;DHT22;70779;52.506;5.492;2023-07-31T00:51:49;19.20;71.30
81311;DHT22;70779;52.506;5.492;2023-07-31T00:54:18;19.20;71.40
81311;DHT22;70779;52.506;5.492;2023-07-31T00:56:45;19.20;71.50
81311;DHT22;70779;52.506;5.492;2023-07-31T00:59:12;19.30;71.60
81311;DHT22;70779;52.506;5.492;2023-07-31T01:01:38;19.30;71.50
81311;DHT22;70779;52.506;5.492;2023-07-31T01:04:04;19.30;71.60
81311;DHT22;70779;52.506;5.492;2023-07-31T01:09:53;19.40;71.80
81311;DHT22;70779;52.506;5.492;2023-07-31T01:12:23;19.50;71.90
81311;DHT22;70779;52.506;5.492;2023-07-31T01:15:07;19.50;72.00
81311;DHT22;70779;52.506;5.492;2023-07-31T01:17:37;19.60;72.00
81311;DHT22;70779;52.506;5.492;2023-07-31T01:20:13;19.70;71.90
81311;DHT22;70779;52.506;5.492;2023-07-31T01:28:05;19.70;72.20
81311;DHT22;70779;52.506;5.492;2023-07-31T01:30:36;19.60;72.30
81311;DHT22;70779;52.506;5.492;2023-07-31T01:33:03;19.50;72.50
81311;DHT22;70779;52.506;5.492;2023-07-31T01:35:36;19.50;72.50
81311;DHT22;70779;52.506;5.492;2023-07-31T01:38:03;19.50;72.70
81311;DHT22;70779;52.506;5.492;2023-07-31T01:40:30;19.50;72.70
81311;DHT22;70779;52.506;5.492;2023-07-31T01:42:56;19.50;72.70
81311;DHT22;70779;52.506;5.492;2023-07-31T01:45:22;19.50;72.80
81311;DHT22;70779;52.506;5.492;2023-07-31T01:47:48;19.50;72.70
81311;DHT22;70779;52.506;5.492;2023-07-31T01:50:14;19.50;72.70
81311;DHT22;70779;52.506;5.492;2023-07-31T01:52:41;19.60;72.70
81311;DHT22;70779;52.506;5.492;2023-07-31T01:55:08;19.60;72.70
81311;DHT22;70779;52.506;5.492;2023-07-31T01:57:36;19.60;72.70
81311;DHT22;70779;52.506;5.492;2023-07-31T02:00:03;19.60;72.80
81311;DHT22;70779;52.506;5.492;2023-07-31T02:02:37;19.60;72.90
81311;DHT22;70779;52.506;5.492;2023-07-31T02:05:04;19.60;72.90
81311;DHT22;70779;52.506;5.492;2023-07-31T02:07:31;19.60;72.90
81311;DHT22;70779;52.506;5.492;2023-07-31T02:09:57;19.70;72.90
81311;DHT22;70779;52.506;5.492;2023-07-31T02:12:23;19.70;72.80
81311;DHT22;70779;52.506;5.492;2023-07-31T02:14:49;19.70;72.80
81311;DHT22;70779;52.506;5.492;2023-07-31T02:17:15;19.70;72.70
81311;DHT22;70779;52.506;5.492;2023-07-31T02:19:41;19.70;72.60
81311;DHT22;70779;52.506;5.492;2023-07-31T02:22:07;19.70;72.50
81311;DHT22;70779;52.506;5.492;2023-07-31T02:24:33;19.60;72.60
81311;DHT22;70779;52.506;5.492;2023-07-31T02:26:59;19.50;72.70
81311;DHT22;70779;52.506;5.492;2023-07-31T02:29:25;19.50;72.60
81311;DHT22;70779;52.506;5.492;2023-07-31T02:31:51;19.40;72.70
81311;DHT22;70779;52.506;5.492;2023-07-31T02:34:18;19.30;73.00
81311;DHT22;70779;52.506;5.492;2023-07-31T02:36:44;19.30;73.10
81311;DHT22;70779;52.506;5.492;2023-07-31T02:39:10;19.30;73.20
81311;DHT22;70779;52.506;5.492;2023-07-31T02:41:36;19.40;73.20
81311;DHT22;70779;52.506;5.492;2023-07-31T02:44:02;19.40;73.30
81311;DHT22;70779;52.506;5.492;2023-07-31T02:46:28;19.40;73.20
81311;DHT22;70779;52.506;5.492;2023-07-31T02:48:54;19.50;73.20
81311;DHT22;70779;52.506;5.492;2023-07-31T02:51:21;19.50;73.20
81311;DHT22;70779;52.506;5.492;2023-07-31T02:53:47;19.50;73.10
81311;DHT22;70779;52.506;5.492;2023-07-31T02:56:14;19.50;73.00
81311;DHT22;70779;52.506;5.492;2023-07-31T02:58:40;19.50;73.00
81311;DHT22;70779;52.506;5.492;2023-07-31T03:01:06;19.50;72.90
81311;DHT22;70779;52.506;5.492;2023-07-31T03:03:32;19.50;72.80
81311;DHT22;70779;52.506;5.492;2023-07-31T03:05:58;19.50;72.70
81311;DHT22;70779;52.506;5.492;2023-07-31T03:08:24;19.60;72.70
81311;DHT22;70779;52.506;5.492;2023-07-31T03:10:50;19.60;72.60
81311;DHT22;70779;52.506;5.492;2023-07-31T03:13:16;19.60;72.60
81311;DHT22;70779;52.506;5.492;2023-07-31T03:15:43;19.60;72.60
81311;DHT22;70779;52.506;5.492;2023-07-31T03:18:09;19.60;72.50
81311;DHT22;70779;52.506;5.492;2023-07-31T03:20:36;19.60;72.50
81311;DHT22;70779;52.506;5.492;2023-07-31T03:23:02;19.60;72.50
81311;DHT22;70779;52.506;5.492;2023-07-31T03:25:28;19.60;72.50
81311;DHT22;70779;52.506;5.492;2023-07-31T03:27:54;19.50;72.50
81311;DHT22;70779;52.506;5.492;2023-07-31T03:30:20;19.50;72.50
81311;DHT22;70779;52.506;5.492;2023-07-31T03:32:46;19.50;72.60
81311;DHT22;70779;52.506;5.492;2023-07-31T03:35:12;19.50;72.60
81311;DHT22;70779;52.506;5.492;2023-07-31T03:37:38;19.50;72.70
81311;DHT22;70779;52.506;5.492;2023-07-31T03:40:05;19.50;72.80
81311;DHT22;70779;52.506;5.492;2023-07-31T03:42:31;19.40;72.90
81311;DHT22;70779;52.506;5.492;2023-07-31T03:44:57;19.40;73.00
81311;DHT22;70779;52.506;5.492;2023-07-31T03:47:23;19.40;73.10
81311;DHT22;70779;52.506;5.492;2023-07-31T03:49:49;19.40;73.10
81311;DHT22;70779;52.506;5.492;2023-07-31T03:52:15;19.40;73.00
81311;DHT22;70779;52.506;5.492;2023-07-31T03:54:41;19.40;73.00
81311;DHT22;70779;52.506;5.492;2023-07-31T03:57:10;19.40;72.90
81311;DHT22;70779;52.506;5.492;2023-07-31T03:59:37;19.40;73.00
81311;DHT22;70779;52.506;5.492;2023-07-31T04:02:05;19.40;73.00
81311;DHT22;70779;52.506;5.492;2023-07-31T04:04:31;19.40;72.90
81311;DHT22;70779;52.506;5.492;2023-07-31T04:06:57;19.40;72.80
81311;DHT22;70779;52.506;5.492;2023-07-31T04:09:23;19.40;72.70
81311;DHT22;70779;52.506;5.492;2023-07-31T04:11:49;19.40;72.70
81311;DHT22;70779;52.506;5.492;2023-07-31T04:14:16;19.50;72.60
81311;DHT22;70779;52.506;5.492;2023-07-31T04:16:42;19.50;72.50
81311;DHT22;70779;52.506;5.492;2023-07-31T04:19:08;19.50;72.60
81311;DHT22;70779;52.506;5.492;2023-07-31T04:21:34;19.50;72.60
81311;DHT22;70779;52.506;5.492;2023-07-31T04:24:00;19.50;72.50
81311;DHT22;70779;52.506;5.492;2023-07-31T04:26:26;19.50;72.50
81311;DHT22;70779;52.506;5.492;2023-07-31T04:28:52;19.50;72.50
81311;DHT22;70779;52.506;5.492;2023-07-31T04:31:18;19.50;72.40
81311;DHT22;70779;52.506;5.492;2023-07-31T04:33:45;19.50;72.30
81311;DHT22;70779;52.506;5.492;2023-07-31T04:36:11;19.50;72.40
81311;DHT22;70779;52.506;5.492;2023-07-31T04:38:37;19.50;72.30
81311;DHT22;70779;52.506;5.492;2023-07-31T04:41:03;19.50;72.20
81311;DHT22;70779;52.506;5.492;2023-07-31T04:43:29;19.50;72.20
81311;DHT22;70779;52.506;5.492;2023-07-31T04:45:55;19.50;72.20
81311;DHT22;70779;52.506;5.492;2023-07-31T04:48:22;19.60;72.20
81311;DHT22;70779;52.506;5.492;2023-07-31T04:50:48;19.60;72.20
81311;DHT22;70779;52.506;5.492;2023-07-31T04:53:14;19.50;72.10
81311;DHT22;70779;52.506;5.492;2023-07-31T04:55:40;19.60;72.10
81311;DHT22;70779;52.506;5.492;2023-07-31T04:58:06;19.60;72.10
81311;DHT22;70779;52.506;5.492;2023-07-31T05:00:32;19.60;72.00
81311;DHT22;70779;52.506;5.492;2023-07-31T05:02:58;19.60;72.10
81311;DHT22;70779;52.506;5.492;2023-07-31T05:05:24;19.50;72.10
81311;DHT22;70779;52.506;5.492;2023-07-31T05:07:50;19.60;72.10
81311;DHT22;70779;52.506;5.492;2023-07-31T05:10:17;19.60;72.10
81311;DHT22;70779;52.506;5.492;2023-07-31T05:12:43;19.60;72.10
81311;DHT22;70779;52.506;5.492;2023-07-31T05:15:09;19.60;72.10
81311;DHT22;70779;52.506;5.492;2023-07-31T05:17:35;19.70;72.00
81311;DHT22;70779;52.506;5.492;2023-07-31T05:20:01;19.70;71.90
81311;DHT22;70779;52.506;5.492;2023-07-31T05:22:28;19.70;71.80
81311;DHT22;70779;52.506;5.492;2023-07-31T05:24:54;19.70;71.80
81311;DHT22;70779;52.506;5.492;2023-07-31T05:27:20;19.70;71.80
81311;DHT22;70779;52.506;5.492;2023-07-31T05:29:46;19.60;72.00
81311;DHT22;70779;52.506;5.492;2023-07-31T05:32:12;19.60;72.10
81311;DHT22;70779;52.506;5.492;2023-07-31T05:34:38;19.60;72.10
81311;DHT22;70779;52.506;5.492;2023-07-31T05:37:05;19.50;72.10
81311;DHT22;70779;52.506;5.492;2023-07-31T05:39:31;19.50;72.20
81311;DHT22;70779;52.506;5.492;2023-07-31T05:41:57;19.40;72.50
81311;DHT22;70779;52.506;5.492;2023-07-31T05:44:23;19.40;72.50
81311;DHT22;70779;52.506;5.492;2023-07-31T05:46:50;19.40;72.70
81311;DHT22;70779;52.506;5.492;2023-07-31T05:49:16;19.40;72.80
81311;DHT22;70779;52.506;5.492;2023-07-31T05:51:42;19.30;72.80
81311;DHT22;70779;52.506;5.492;2023-07-31T05:54:08;19.30;72.80
81311;DHT22;70779;52.506;5.492;2023-07-31T05:56:34;19.30;72.80
81311;DHT22;70779;52.506;5.492;2023-07-31T05:59:00;19.30;72.90
81311;DHT22;70779;52.506;5.492;2023-07-31T06:01:26;19.20;73.00
81311;DHT22;70779;52.506;5.492;2023-07-31T06:03:52;19.20;73.00
81311;DHT22;70779;52.506;5.492;2023-07-31T06:06:18;19.20;73.10
81311;DHT22;70779;52.506;5.492;2023-07-31T06:08:44;19.20;73.20
81311;DHT22;70779;52.506;5.492;2023-07-31T06:11:11;19.20;73.20
81311;DHT22;70779;52.506;5.492;2023-07-31T06:13:37;19.20;73.30
81311;DHT22;70779;52.506;5.492;2023-07-31T06:16:03;19.20;73.30
81311;DHT22;70779;52.506;5.492;2023-07-31T06:18:32;19.20;73.20
81311;DHT22;70779;52.506;5.492;2023-07-31T06:20:59;19.20;73.40
81311;DHT22;70779;52.506;5.492;2023-07-31T06:23:25;19.20;73.40
81311;DHT22;70779;52.506;5.492;2023-07-31T06:25:51;19.30;73.30
81311;DHT22;70779;52.506;5.492;2023-07-31T06:28:17;19.30;73.20
81311;DHT22;70779;52.506;5.492;2023-07-31T06:30:43;19.20;73.10
81311;DHT22;70779;52.506;5.492;2023-07-31T06:33:09;19.20;73.20
81311;DHT22;70779;52.506;5.492;2023-07-31T06:35:35;19.10;73.20
81311;DHT22;70779;52.506;5.492;2023-07-31T06:38:01;19.10;73.30
81311;DHT22;70779;52.506;5.492;2023-07-31T06:40:29;19.10;73.40
81311;DHT22;70779;52.506;5.492;2023-07-31T06:42:55;19.00;73.50
81311;DHT22;70779;52.506;5.492;2023-07-31T06:45:21;19.00;73.50
81311;DHT22;70779;52.506;5.492;2023-07-31T06:47:47;19.00;73.60
81311;DHT22;70779;52.506;5.492;2023-07-31T06:50:14;19.00;73.80
81311;DHT22;70779;52.506;5.492;2023-07-31T06:52:42;19.10;73.90
81311;DHT22;70779;52.506;5.492;2023-07-31T06:55:19;19.10;73.80
81311;DHT22;70779;52.506;5.492;2023-07-31T06:57:47;19.20;73.70
81311;DHT22;70779;52.506;5.492;2023-07-31T07:00:14;19.20;73.60
81311;DHT22;70779;52.506;5.492;2023-07-31T07:02:41;19.30;73.60
81311;DHT22;70779;52.506;5.492;2023-07-31T07:05:07;19.30;73.50
81311;DHT22;70779;52.506;5.492;2023-07-31T07:07:34;19.30;73.60
81311;DHT22;70779;52.506;5.492;2023-07-31T07:10:00;19.30;73.60
81311;DHT22;70779;52.506;5.492;2023-07-31T07:12:31;19.30;73.70
81311;DHT22;70779;52.506;5.492;2023-07-31T07:14:57;19.30;73.70
81311;DHT22;70779;52.506;5.492;2023-07-31T07:17:24;19.30;73.80
81311;DHT22;70779;52.506;5.492;2023-07-31T07:19:50;19.30;73.70
81311;DHT22;70779;52.506;5.492;2023-07-31T07:22:17;19.40;73.80
81311;DHT22;70779;52.506;5.492;2023-07-31T07:24:43;19.40;73.80
81311;DHT22;70779;52.506;5.492;2023-07-31T07:27:09;19.50;73.70
81311;DHT22;70779;52.506;5.492;2023-07-31T07:29:35;19.50;73.70
81311;DHT22;70779;52.506;5.492;2023-07-31T07:32:01;19.50;73.80
81311;DHT22;70779;52.506;5.492;2023-07-31T07:34:28;19.50;73.80
81311;DHT22;70779;52.506;5.492;2023-07-31T07:36:54;19.60;73.80
81311;DHT22;70779;52.506;5.492;2023-07-31T07:39:21;19.70;73.80
81311;DHT22;70779;52.506;5.492;2023-07-31T07:41:47;19.70;73.70
81311;DHT22;70779;52.506;5.492;2023-07-31T07:44:14;19.70;73.60
81311;DHT22;70779;52.506;5.492;2023-07-31T07:46:40;19.70;73.70
81311;DHT22;70779;52.506;5.492;2023-07-31T07:49:06;19.70;73.80
81311;DHT22;70779;52.506;5.492;2023-07-31T07:51:33;19.80;73.90
81311;DHT22;70779;52.506;5.492;2023-07-31T07:53:59;19.90;73.80
81311;DHT22;70779;52.506;5.492;2023-07-31T07:56:26;19.90;73.70
81311;DHT22;70779;52.506;5.492;2023-07-31T07:58:53;19.90;73.70
81311;DHT22;70779;52.506;5.492;2023-07-31T08:01:19;19.90;73.70
81311;DHT22;70779;52.506;5.492;2023-07-31T08:03:46;19.90;73.60
81311;DHT22;70779;52.506;5.492;2023-07-31T08:06:12;19.90;73.70
81311;DHT22;70779;52.506;5.492;2023-07-31T08:08:38;19.90;73.90
81311;DHT22;70779;52.506;5.492;2023-07-31T08:11:05;19.90;73.90
81311;DHT22;70779;52.506;5.492;2023-07-31T08:13:31;20.00;73.90
81311;DHT22;70779;52.506;5.492;2023-07-31T08:15:57;20.00;73.80
81311;DHT22;70779;52.506;5.492;2023-07-31T08:18:23;20.00;73.80
81311;DHT22;70779;52.506;5.492;2023-07-31T08:20:50;20.00;73.80
81311;DHT22;70779;52.506;5.492;2023-07-31T08:23:16;20.00;73.80
81311;DHT22;70779;52.506;5.492;2023-07-31T08:25:42;20.10;73.80
81311;DHT22;70779;52.506;5.492;2023-07-31T08:28:08;20.10;73.80
81311;DHT22;70779;52.506;5.492;2023-07-31T08:30:34;20.10;73.80
81311;DHT22;70779;52.506;5.492;2023-07-31T08:33:00;20.20;73.90
81311;DHT22;70779;52.506;5.492;2023-07-31T08:35:27;20.20;73.90
81311;DHT22;70779;52.506;5.492;2023-07-31T08:37:55;20.30;73.90
81311;DHT22;70779;52.506;5.492;2023-07-31T08:40:21;20.30;73.90
81311;DHT22;70779;52.506;5.492;2023-07-31T08:42:49;20.30;73.90
81311;DHT22;70779;52.506;5.492;2023-07-31T08:45:18;20.40;74.00
81311;DHT22;70779;52.506;5.492;2023-07-31T08:47:49;20.50;74.00
81311;DHT22;70779;52.506;5.492;2023-07-31T08:50:18;20.60;73.90
81311;DHT22;70779;52.506;5.492;2023-07-31T08:52:49;20.60;73.80
81311;DHT22;70779;52.506;5.492;2023-07-31T08:55:16;20.70;73.90
81311;DHT22;70779;52.506;5.492;2023-07-31T08:57:42;20.70;73.80
81311;DHT22;70779;52.506;5.492;2023-07-31T09:00:10;20.70;73.70
81311;DHT22;70779;52.506;5.492;2023-07-31T09:02:57;20.70;73.70
81311;DHT22;70779;52.506;5.492;2023-07-31T09:05:26;20.80;73.80
81311;DHT22;70779;52.506;5.492;2023-07-31T09:07:53;20.80;74.00
81311;DHT22;70779;52.506;5.492;2023-07-31T09:10:20;20.90;74.00
81311;DHT22;70779;52.506;5.492;2023-07-31T09:12:48;20.90;73.80
81311;DHT22;70779;52.506;5.492;2023-07-31T09:15:14;21.00;73.80
81311;DHT22;70779;52.506;5.492;2023-07-31T09:17:41;21.00;74.00
81311;DHT22;70779;52.506;5.492;2023-07-31T09:20:18;21.10;73.90
81311;DHT22;70779;52.506;5.492;2023-07-31T09:22:45;21.10;73.60
81311;DHT22;70779;52.506;5.492;2023-07-31T09:25:22;21.10;73.40
81311;DHT22;70779;52.506;5.492;2023-07-31T09:27:59;21.00;73.50
81311;DHT22;70779;52.506;5.492;2023-07-31T09:30:25;21.00;73.80
81311;DHT22;70779;52.506;5.492;2023-07-31T09:33:05;21.00;74.00
81311;DHT22;70779;52.506;5.492;2023-07-31T09:35:35;21.10;74.00
81311;DHT22;70779;52.506;5.492;2023-07-31T09:38:06;21.10;73.80
81311;DHT22;70779;52.506;5.492;2023-07-31T09:40:35;21.10;73.90
81311;DHT22;70779;52.506;5.492;2023-07-31T09:43:03;21.10;73.80
81311;DHT22;70779;52.506;5.492;2023-07-31T09:45:33;21.10;73.90
81311;DHT22;70779;52.506;5.492;2023-07-31T09:48:00;21.10;74.00
81311;DHT22;70779;52.506;5.492;2023-07-31T09:50:26;21.10;74.00
81311;DHT22;70779;52.506;5.492;2023-07-31T09:52:52;21.10;73.90
81311;DHT22;70779;52.506;5.492;2023-07-31T09:55:19;21.10;74.00
81311;DHT22;70779;52.506;5.492;2023-07-31T09:57:47;21.10;74.10
81311;DHT22;70779;52.506;5.492;2023-07-31T10:00:15;21.20;73.90
81311;DHT22;70779;52.506;5.492;2023-07-31T10:02:45;21.20;74.00
81311;DHT22;70779;52.506;5.492;2023-07-31T10:05:13;21.20;74.20
81311;DHT22;70779;52.506;5.492;2023-07-31T10:07:43;21.30;74.20
81311;DHT22;70779;52.506;5.492;2023-07-31T10:10:11;21.30;74.20
81311;DHT22;70779;52.506;5.492;2023-07-31T10:12:37;21.30;74.20
81311;DHT22;70779;52.506;5.492;2023-07-31T10:15:04;21.30;73.90
81311;DHT22;70779;52.506;5.492;2023-07-31T10:17:31;21.20;73.90
81311;DHT22;70779;52.506;5.492;2023-07-31T10:20:02;21.10;74.20
81311;DHT22;70779;52.506;5.492;2023-07-31T10:22:34;21.10;74.40
81311;DHT22;70779;52.506;5.492;2023-07-31T10:25:00;21.10;74.60
81311;DHT22;70779;52.506;5.492;2023-07-31T10:27:27;21.10;74.70
81311;DHT22;70779;52.506;5.492;2023-07-31T10:29:55;21.20;74.70
81311;DHT22;70779;52.506;5.492;2023-07-31T10:32:22;21.30;74.70
81311;DHT22;70779;52.506;5.492;2023-07-31T10:34:50;21.50;74.70
81311;DHT22;70779;52.506;5.492;2023-07-31T10:39:58;22.00;74.40
81311;DHT22;70779;52.506;5.492;2023-07-31T10:45:01;22.50;73.60
81311;DHT22;70779;52.506;5.492;2023-07-31T10:47:27;22.60;72.80
81311;DHT22;70779;52.506;5.492;2023-07-31T10:52:39;22.60;72.20
81311;DHT22;70779;52.506;5.492;2023-07-31T10:55:29;22.50;72.30
81311;DHT22;70779;52.506;5.492;2023-07-31T10:58:18;22.30;72.60
81311;DHT22;70779;52.506;5.492;2023-07-31T11:00:44;22.20;72.80
81311;DHT22;70779;52.506;5.492;2023-07-31T11:03:15;22.20;73.10
81311;DHT22;70779;52.506;5.492;2023-07-31T11:05:51;22.10;73.10
81311;DHT22;70779;52.506;5.492;2023-07-31T11:10:51;22.10;73.10
81311;DHT22;70779;52.506;5.492;2023-07-31T11:13:50;22.00;73.30
81311;DHT22;70779;52.506;5.492;2023-07-31T11:16:22;22.10;73.20
81311;DHT22;70779;52.506;5.492;2023-07-31T11:18:49;22.10;73.10
81311;DHT22;70779;52.506;5.492;2023-07-31T11:23:48;22.20;73.20
81311;DHT22;70779;52.506;5.492;2023-07-31T11:26:15;22.30;72.70
81311;DHT22;70779;52.506;5.492;2023-07-31T11:28:42;22.50;72.20
81311;DHT22;70779;52.506;5.492;2023-07-31T11:31:10;22.50;72.10
81311;DHT22;70779;52.506;5.492;2023-07-31T11:33:37;22.70;71.70
81311;DHT22;70779;52.506;5.492;2023-07-31T11:36:03;22.80;71.00
81311;DHT22;70779;52.506;5.492;2023-07-31T11:38:33;22.90;70.70
81311;DHT22;70779;52.506;5.492;2023-07-31T11:41:02;22.90;70.10
81311;DHT22;70779;52.506;5.492;2023-07-31T11:43:29;22.90;70.30
81311;DHT22;70779;52.506;5.492;2023-07-31T11:46:00;23.00;70.30
81311;DHT22;70779;52.506;5.492;2023-07-31T11:48:30;23.10;70.40
81311;DHT22;70779;52.506;5.492;2023-07-31T11:51:01;23.40;70.00
81311;DHT22;70779;52.506;5.492;2023-07-31T11:53:31;23.60;68.80
81311;DHT22;70779;52.506;5.492;2023-07-31T11:56:01;23.60;68.20
81311;DHT22;70779;52.506;5.492;2023-07-31T11:58:31;23.40;68.40
81311;DHT22;70779;52.506;5.492;2023-07-31T12:00:59;23.20;68.90
81311;DHT22;70779;52.506;5.492;2023-07-31T12:03:26;22.90;69.60
81311;DHT22;70779;52.506;5.492;2023-07-31T12:05:55;22.80;70.10
81311;DHT22;70779;52.506;5.492;2023-07-31T12:08:23;22.70;70.40
81311;DHT22;70779;52.506;5.492;2023-07-31T12:10:53;22.70;70.60
81311;DHT22;70779;52.506;5.492;2023-07-31T12:13:22;22.80;70.70
81311;DHT22;70779;52.506;5.492;2023-07-31T12:15:48;22.80;70.50
81311;DHT22;70779;52.506;5.492;2023-07-31T12:18:19;22.80;70.40
81311;DHT22;70779;52.506;5.492;2023-07-31T12:20:47;22.90;70.30
81311;DHT22;70779;52.506;5.492;2023-07-31T12:23:15;22.90;70.00
81311;DHT22;70779;52.506;5.492;2023-07-31T12:25:42;22.90;70.10
81311;DHT22;70779;52.506;5.492;2023-07-31T12:28:08;23.00;69.80
81311;DHT22;70779;52.506;5.492;2023-07-31T12:30:39;23.00;69.70
81311;DHT22;70779;52.506;5.492;2023-07-31T12:33:15;23.00;69.70
81311;DHT22;70779;52.506;5.492;2023-07-31T12:35:45;23.00;69.60
81311;DHT22;70779;52.506;5.492;2023-07-31T12:38:13;23.00;69.70
81311;DHT22;70779;52.506;5.492;2023-07-31T12:40:41;23.00;69.20
81311;DHT22;70779;52.506;5.492;2023-07-31T12:43:08;23.00;69.20
81311;DHT22;70779;52.506;5.492;2023-07-31T12:45:35;23.10;69.10
81311;DHT22;70779;52.506;5.492;2023-07-31T12:48:01;23.20;69.00
81311;DHT22;70779;52.506;5.492;2023-07-31T12:50:28;23.20;68.80
81311;DHT22;70779;52.506;5.492;2023-07-31T12:52:54;23.30;68.60
81311;DHT22;70779;52.506;5.492;2023-07-31T12:55:21;23.30;68.60
81311;DHT22;70779;52.506;5.492;2023-07-31T12:57:48;23.30;68.30
81311;DHT22;70779;52.506;5.492;2023-07-31T13:00:14;23.40;68.50
81311;DHT22;70779;52.506;5.492;2023-07-31T13:02:40;23.50;68.40
81311;DHT22;70779;52.506;5.492;2023-07-31T13:05:06;23.70;68.20
81311;DHT22;70779;52.506;5.492;2023-07-31T13:07:32;23.90;67.70
81311;DHT22;70779;52.506;5.492;2023-07-31T13:09:59;24.20;67.20
81311;DHT22;70779;52.506;5.492;2023-07-31T13:12:25;24.30;66.70
81311;DHT22;70779;52.506;5.492;2023-07-31T13:14:51;24.40;66.00
81311;DHT22;70779;52.506;5.492;2023-07-31T13:17:18;24.40;65.60
81311;DHT22;70779;52.506;5.492;2023-07-31T13:19:44;24.30;65.50
81311;DHT22;70779;52.506;5.492;2023-07-31T13:22:10;24.20;65.80
81311;DHT22;70779;52.506;5.492;2023-07-31T13:24:36;24.20;65.90
81311;DHT22;70779;52.506;5.492;2023-07-31T13:27:02;24.30;65.50
81311;DHT22;70779;52.506;5.492;2023-07-31T13:29:28;24.30;65.60
81311;DHT22;70779;52.506;5.492;2023-07-31T13:31:55;24.40;65.80
81311;DHT22;70779;52.506;5.492;2023-07-31T13:34:22;24.50;65.60
81311;DHT22;70779;52.506;5.492;2023-07-31T13:36:48;24.50;65.50
81311;DHT22;70779;52.506;5.492;2023-07-31T13:39:14;24.60;65.50
81311;DHT22;70779;52.506;5.492;2023-07-31T13:41:40;24.60;65.20
81311;DHT22;70779;52.506;5.492;2023-07-31T13:44:06;24.70;65.20
81311;DHT22;70779;52.506;5.492;2023-07-31T13:46:32;24.80;64.70
81311;DHT22;70779;52.506;5.492;2023-07-31T13:48:59;24.80;65.00
81311;DHT22;70779;52.506;5.492;2023-07-31T13:51:26;25.00;64.60
81311;DHT22;70779;52.506;5.492;2023-07-31T13:53:53;24.90;64.70
81311;DHT22;70779;52.506;5.492;2023-07-31T13:56:19;24.80;65.00
81311;DHT22;70779;52.506;5.492;2023-07-31T13:58:45;24.80;65.00
81311;DHT22;70779;52.506;5.492;2023-07-31T14:01:11;24.70;64.80
81311;DHT22;70779;52.506;5.492;2023-07-31T14:03:37;24.60;65.10
81311;DHT22;70779;52.506;5.492;2023-07-31T14:06:03;24.60;65.40
81311;DHT22;70779;52.506;5.492;2023-07-31T14:08:30;24.50;65.40
81311;DHT22;70779;52.506;5.492;2023-07-31T14:10:56;24.50;65.50
81311;DHT22;70779;52.506;5.492;2023-07-31T14:13:23;24.50;65.70
81311;DHT22;70779;52.506;5.492;2023-07-31T14:15:49;24.50;65.30
81311;DHT22;70779;52.506;5.492;2023-07-31T14:18:15;24.40;65.20
81311;DHT22;70779;52.506;5.492;2023-07-31T14:20:41;24.40;65.50
81311;DHT22;70779;52.506;5.492;2023-07-31T14:23:07;24.30;65.60
81311;DHT22;70779;52.506;5.492;2023-07-31T14:25:33;24.20;65.60
81311;DHT22;70779;52.506;5.492;2023-07-31T14:27:59;24.20;65.70
81311;DHT22;70779;52.506;5.492;2023-07-31T14:30:25;24.20;65.80
81311;DHT22;70779;52.506;5.492;2023-07-31T14:32:51;24.00;66.00
81311;DHT22;70779;52.506;5.492;2023-07-31T14:35:17;23.80;66.50
81311;DHT22;70779;52.506;5.492;2023-07-31T14:37:44;23.50;67.50
81311;DHT22;70779;52.506;5.492;2023-07-31T14:40:12;23.10;68.30
81311;DHT22;70779;52.506;5.492;2023-07-31T14:42:39;22.80;69.20
81311;DHT22;70779;52.506;5.492;2023-07-31T14:45:06;22.50;70.20
81311;DHT22;70779;52.506;5.492;2023-07-31T14:47:32;22.40;70.70
81311;DHT22;70779;52.506;5.492;2023-07-31T14:49:59;22.20;71.10
81311;DHT22;70779;52.506;5.492;2023-07-31T14:52:26;22.20;71.30
81311;DHT22;70779;52.506;5.492;2023-07-31T14:54:52;22.20;71.30
81311;DHT22;70779;52.506;5.492;2023-07-31T14:57:18;22.20;71.20
81311;DHT22;70779;52.506;5.492;2023-07-31T14:59:45;22.20;71.30
81311;DHT22;70779;52.506;5.492;2023-07-31T15:02:11;22.20;71.20
81311;DHT22;70779;52.506;5.492;2023-07-31T15:04:38;22.20;71.10
81311;DHT22;70779;52.506;5.492;2023-07-31T15:07:04;22.20;71.20
81311;DHT22;70779;52.506;5.492;2023-07-31T15:09:30;22.20;71.30
81311;DHT22;70779;52.506;5.492;2023-07-31T15:11:57;22.20;71.50
81311;DHT22;70779;52.506;5.492;2023-07-31T15:14:24;22.40;71.40
81311;DHT22;70779;52.506;5.492;2023-07-31T15:16:50;22.50;71.10
81311;DHT22;70779;52.506;5.492;2023-07-31T15:19:16;22.60;70.80
81311;DHT22;70779;52.506;5.492;2023-07-31T15:21:43;22.70;70.30
81311;DHT22;70779;52.506;5.492;2023-07-31T15:24:09;22.80;70.00
81311;DHT22;70779;52.506;5.492;2023-07-31T15:26:36;22.90;69.90
81311;DHT22;70779;52.506;5.492;2023-07-31T15:29:05;23.00;69.40
81311;DHT22;70779;52.506;5.492;2023-07-31T15:31:41;23.00;69.20
81311;DHT22;70779;52.506;5.492;2023-07-31T15:34:07;23.10;68.90
81311;DHT22;70779;52.506;5.492;2023-07-31T15:36:33;23.10;69.10
81311;DHT22;70779;52.506;5.492;2023-07-31T15:38:59;23.10;69.00
81311;DHT22;70779;52.506;5.492;2023-07-31T15:41:25;23.20;68.40
81311;DHT22;70779;52.506;5.492;2023-07-31T15:43:52;23.20;68.40
81311;DHT22;70779;52.506;5.492;2023-07-31T15:46:18;23.10;68.50
81311;DHT22;70779;52.506;5.492;2023-07-31T15:48:44;23.10;68.70
81311;DHT22;70779;52.506;5.492;2023-07-31T15:51:11;23.10;68.90